PINE FLAT DAM (PNF)

Elevation: 970' · KINGS R basin · Operator: US Army Corps of Engineers

Provisional data, subject to change.
Query executed Saturday at 18:16:01

Select a sensor type for a plot of data.
Note: Reservoir Flows are daily averages.

Earlier

Date RES ELE    STORAGE    RES CHG    TOC STO    ABV TOC    OUTFLOW    INFLOW    FNF    PPT INC    PPTINC4    TEMP MN    TEMP MX    WINDLEN    EVP PAN   
 FEET   AF   AF   AF   AF   CFS   CFS   CFS   INCHES   INCHES   DEG F   DEG F   MILES   INCHES  
11/11/2016 757.35 194554 446 773548 -578994 110 344 379 0.01 0.00 -- -- 35 0.10
11/12/2016 757.52 194976 -- 765161 -570185 110 331 309 0.00 0.00 -- -- 39 0.09
11/13/2016 757.69 195398 -- 756774 -561376 110 331 312 0.00 0.00 -- -- 38 0.08
11/14/2016 757.85 195796 398 748387 -552591 110 319 351 0.00 0.00 -- -- 38 0.08
11/15/2016 757.99 196145 -- 740000 -543855 112 296 404 e 0.00 0.00 -- -- 41 0.08
11/16/2016 758.14 196519 -- 736234 -539715 113 307 404 e 0.00 0.00 -- -- 44 0.06
11/17/2016 758.35 197043 524 728346 -531303 112 382 340 0.00 0.00 -- -- 35 0.06
11/18/2016 758.50 197418 375 720614 -523196 108 305 309 0.00 0.00 -- -- 43 0.08
11/19/2016 758.64 197768 -- 712860 -515092 108 290 278 0.00 0.00 -- -- 31 0.06
11/20/2016 758.79 198143 -- 705114 -506971 108 304 267 0.00 0.00 -- -- 42 0.07
11/21/2016 758.97 198594 451 697718 -499124 108 340 221 0.07 0.04 -- -- 31 0.04
11/22/2016 759.48 199875 1281 690907 -491032 108 759 209 e 0.00 0.07 -- -- 35 0.05
11/23/2016 759.88 200883 1008 683804 -482921 108 621 208 e 0.01 0.00 -- -- 40 0.05
11/24/2016 760.23 201767 884 676680 -474913 108 560 239 0.00 0.02 -- -- 38 0.06
11/25/2016 760.56 202603 836 669520 -466917 108 535 215 0.00 0.00 -- -- 37 0.06
11/26/2016 761.01 203745 1142 662511 -458766 109 690 317 0.64 0.00 -- -- 49 0.06
11/27/2016 761.47 204916 1171 655397 -450481 105 700 346 0.91 0.90 -- -- 38 0.05
11/28/2016 761.92 206065 1149 648124 -442059 101 685 400 0.00 0.65 -- -- 49 0.05
11/29/2016 762.36 207192 1127 641126 -433934 101 675 296 0.00 0.01 -- -- 31 0.05
11/30/2016 762.77 208244 1052 633829 -425585 108 643 388 0.00 0.00 -- -- 41 0.05
12/01/2016 763.13 209171 927 634507 -425336 111 582 258 0.00 0.00 -- -- 34 0.04
12/02/2016 763.54 210229 1058 635180 -424951 111 648 290 0.00 0.00 -- -- 25 0.04
12/03/2016 763.92 211213 984 635947 -424734 111 612 260 0.00 -- -- -- 37 0.05
12/04/2016 764.24 212043 830 636761 -424718 110 534 207 0.00 0.00 -- -- 37 0.05
12/05/2016 764.68 213186 1143 637468 -424282 110 691 291 0.00 0.00 -- -- 35 0.04
12/06/2016 765.05 214151 965 638130 -423979 110 600 196 0.00 0.00 -- -- 32 0.03
12/07/2016 765.44 215170 1019 638690 -423520 109 627 345 0.00 0.00 -- -- 29 0.03
12/08/2016 765.92 216428 1258 639398 -422970 105 743 519 0.45 0.02 -- -- 28 0.03
12/09/2016 766.64 218322 1894 640175 -421853 106 1066 639 0.00 0.43 -- -- 40 0.05
12/10/2016 -- -- -- -- -- -- -- -- -- 0.02 -- -- -- --

Later | Latest

Warning! This data is preliminary and subject to revision.

Show PNF Map | Plot PNF Data | 1 Month PNF Data | Real-Time PNF Data | PNF Info